Aérodrome :
LOGIN :

S'inscrire | Disclaimer

   EN    FR    IT 

 










Légende :    VFR   VFR Marginal   IFR   IFR Intensif   IFR Très Intensif
Visi : 
Plafond : 
>= 8 km
>= 3000ft
5 à 8 km
1000 à 3000 ft
1500m à 5 km
500 à 1000 ft
800 à 1500m
200 à 500 ft
< 800m
< 200 ft
Symboles :   Orages  Brouillard  Fortes neiges  Fortes précipitations  Vent > 20 kt
SIGMETs :   Divers  Orages  Givrage  Turbulence  Onde Orograph.  Cendres Volcan.






- Altitude de l'aérodrome : 479 ft
- Code IATA : DOL


LFRG - Deauville

DERNIER METAR :
  • 150730Z AUTO VRB01KT 9999 BKN032 BKN038 OVC110 02/01 Q1000 TEMPO BKN008 BKN015CB BECMG RA

METARs EXPIRÉS :
  • 150700Z AUTO VRB03KT 9999 FEW046 BKN130 03/02 Q1000 BECMG RA BKN015CB
  • 150630Z AUTO 36002KT 9999 FEW026 SCT045 BKN140 02/01 Q1000 BECMG RA BKN015CB
  • 150600Z AUTO 36003KT 9999 BKN044 OVC150 01/01 Q1000 BECMG RA BKN015CB
  • 150530Z AUTO 02002KT 8000 3800 SCT042 OVC150 01/01 Q1000 BECMG RA BKN015CB
  • 150500Z AUTO 02003KT 9999 FEW024 OVC160 01/01 Q1000

TAF TAF LFRG
Valide du 15 à 06h jusqu'au 15 à 15h UTC


150500Z 1506/1515 VRB05KT 9999 BKN025
BECMG 1507/1509 5000 RA BKN015CB
TEMPO 1509/1515 BKN008 BKN015CB
ATIS : +33 2 31 65 65 36



MET'MAP, la Météo Aéronautique d'un coup d'oeil ! - Copyright ORBIFLY Décembre 2007 - Disclaimer

ORBIFLY MET'MAP TEAM :

Programmation & Développement : Alexandra Zaïnal
Conception & Développement : Baudouin d'Aumeries
Co-Programmation & Développement : Marc-Olivier Méhu
Soutien technique & logistique : Manuel Goepfert

Contact : metmap@orbifly.com




SOURCES & CREDITS :

   NOAA